sensor_id;sensor_type;location;lat;lon;timestamp;pressure;altitude;pressure_sealevel;temperature;humidity
50632;BME280;49583;45.590;-122.498;2022-10-18T00:01:04;101381.20;;;24.47;41.96
50632;BME280;49583;45.590;-122.498;2022-10-18T00:03:16;101384.71;;;24.41;42.08
50632;BME280;49583;45.590;-122.498;2022-10-18T00:05:22;101383.38;;;24.37;42.25
50632;BME280;49583;45.590;-122.498;2022-10-18T00:07:28;101382.69;;;24.35;42.41
50632;BME280;49583;45.590;-122.498;2022-10-18T00:09:35;101382.91;;;24.33;42.54
50632;BME280;49583;45.590;-122.498;2022-10-18T00:11:41;101385.31;;;24.30;42.54
50632;BME280;49583;45.590;-122.498;2022-10-18T00:13:47;101383.20;;;24.24;42.52
50632;BME280;49583;45.590;-122.498;2022-10-18T00:15:57;101381.00;;;24.18;42.67
50632;BME280;49583;45.590;-122.498;2022-10-18T00:18:04;101383.00;;;24.11;42.74
50632;BME280;49583;45.590;-122.498;2022-10-18T00:20:10;101379.44;;;24.06;42.83
50632;BME280;49583;45.590;-122.498;2022-10-18T00:22:17;101379.11;;;24.02;42.90
50632;BME280;49583;45.590;-122.498;2022-10-18T00:24:23;101377.97;;;23.97;42.97
50632;BME280;49583;45.590;-122.498;2022-10-18T00:26:30;101381.19;;;23.92;43.03
50632;BME280;49583;45.590;-122.498;2022-10-18T00:28:37;101382.43;;;23.87;43.23
50632;BME280;49583;45.590;-122.498;2022-10-18T00:30:44;101381.65;;;23.79;43.33
50632;BME280;49583;45.590;-122.498;2022-10-18T00:32:50;101388.80;;;23.73;43.61
50632;BME280;49583;45.590;-122.498;2022-10-18T00:34:57;101384.52;;;23.69;43.82
50632;BME280;49583;45.590;-122.498;2022-10-18T00:37:04;101388.17;;;23.61;43.78
50632;BME280;49583;45.590;-122.498;2022-10-18T00:39:15;101384.11;;;23.54;44.12
50632;BME280;49583;45.590;-122.498;2022-10-18T00:41:25;101390.58;;;23.50;44.25
50632;BME280;49583;45.590;-122.498;2022-10-18T00:43:48;101387.88;;;23.49;44.34
50632;BME280;49583;45.590;-122.498;2022-10-18T00:45:55;101393.41;;;23.52;44.44
50632;BME280;49583;45.590;-122.498;2022-10-18T00:48:03;101395.02;;;23.59;44.57
50632;BME280;49583;45.590;-122.498;2022-10-18T00:50:10;101394.95;;;23.69;44.60
50632;BME280;49583;45.590;-122.498;2022-10-18T00:52:39;101395.78;;;23.83;44.43
50632;BME280;49583;45.590;-122.498;2022-10-18T00:54:48;101392.31;;;23.95;44.25
50632;BME280;49583;45.590;-122.498;2022-10-18T00:56:55;101389.73;;;24.03;44.05
50632;BME280;49583;45.590;-122.498;2022-10-18T00:59:02;101390.95;;;24.10;43.94
50632;BME280;49583;45.590;-122.498;2022-10-18T01:01:08;101386.94;;;24.10;43.74
50632;BME280;49583;45.590;-122.498;2022-10-18T01:03:14;101392.98;;;24.08;43.56
50632;BME280;49583;45.590;-122.498;2022-10-18T01:05:20;101386.04;;;24.01;43.57
50632;BME280;49583;45.590;-122.498;2022-10-18T01:12:22;101389.23;;;23.68;43.59
50632;BME280;49583;45.590;-122.498;2022-10-18T01:17:01;101391.52;;;23.41;43.96
50632;BME280;49583;45.590;-122.498;2022-10-18T01:21:54;101388.05;;;23.19;44.09
50632;BME280;49583;45.590;-122.498;2022-10-18T01:31:08;101398.70;;;22.72;44.66
50632;BME280;49583;45.590;-122.498;2022-10-18T01:33:22;101400.32;;;22.61;44.95
50632;BME280;49583;45.590;-122.498;2022-10-18T01:35:34;101403.03;;;22.51;45.12
50632;BME280;49583;45.590;-122.498;2022-10-18T01:37:43;101400.63;;;22.43;45.22
50632;BME280;49583;45.590;-122.498;2022-10-18T01:39:53;101401.91;;;22.32;45.56
50632;BME280;49583;45.590;-122.498;2022-10-18T01:42:06;101404.27;;;22.23;45.68
50632;BME280;49583;45.590;-122.498;2022-10-18T01:44:18;101411.80;;;22.16;45.85
50632;BME280;49583;45.590;-122.498;2022-10-18T01:46:27;101410.63;;;22.09;45.94
50632;BME280;49583;45.590;-122.498;2022-10-18T01:48:35;101410.48;;;22.02;46.18
50632;BME280;49583;45.590;-122.498;2022-10-18T01:50:43;101412.73;;;21.95;46.30
50632;BME280;49583;45.590;-122.498;2022-10-18T01:52:50;101412.63;;;21.89;46.34
50632;BME280;49583;45.590;-122.498;2022-10-18T01:54:58;101417.17;;;21.83;46.37
50632;BME280;49583;45.590;-122.498;2022-10-18T01:57:57;101419.08;;;21.76;46.76
50632;BME280;49583;45.590;-122.498;2022-10-18T01:59:59;101421.91;;;21.68;46.80
50632;BME280;49583;45.590;-122.498;2022-10-18T02:07:41;101425.95;;;21.43;47.32
50632;BME280;49583;45.590;-122.498;2022-10-18T02:10:14;101430.04;;;21.34;47.40
50632;BME280;49583;45.590;-122.498;2022-10-18T02:12:23;101435.05;;;21.26;47.51
50632;BME280;49583;45.590;-122.498;2022-10-18T02:14:31;101437.13;;;21.19;47.57
50632;BME280;49583;45.590;-122.498;2022-10-18T02:16:42;101438.44;;;21.11;47.89
50632;BME280;49583;45.590;-122.498;2022-10-18T02:19:07;101440.98;;;21.02;47.97
50632;BME280;49583;45.590;-122.498;2022-10-18T02:21:17;101445.83;;;20.95;48.00
50632;BME280;49583;45.590;-122.498;2022-10-18T02:23:24;101450.02;;;20.89;48.21
50632;BME280;49583;45.590;-122.498;2022-10-18T02:25:33;101448.33;;;20.83;48.30
50632;BME280;49583;45.590;-122.498;2022-10-18T02:27:40;101449.72;;;20.77;48.51
50632;BME280;49583;45.590;-122.498;2022-10-18T02:29:47;101450.09;;;20.71;48.62
50632;BME280;49583;45.590;-122.498;2022-10-18T02:32:08;101445.86;;;20.64;48.72
50632;BME280;49583;45.590;-122.498;2022-10-18T02:34:25;101448.21;;;20.57;48.87
50632;BME280;49583;45.590;-122.498;2022-10-18T02:36:44;101451.45;;;20.50;48.89
50632;BME280;49583;45.590;-122.498;2022-10-18T02:38:59;101449.98;;;20.44;49.12
50632;BME280;49583;45.590;-122.498;2022-10-18T02:41:07;101446.98;;;20.37;49.23
50632;BME280;49583;45.590;-122.498;2022-10-18T02:43:14;101448.36;;;20.32;49.35
50632;BME280;49583;45.590;-122.498;2022-10-18T02:45:21;101449.98;;;20.27;49.38
50632;BME280;49583;45.590;-122.498;2022-10-18T02:47:27;101450.32;;;20.22;49.50
50632;BME280;49583;45.590;-122.498;2022-10-18T02:49:34;101447.96;;;20.17;49.60
50632;BME280;49583;45.590;-122.498;2022-10-18T02:51:41;101446.66;;;20.10;49.67
50632;BME280;49583;45.590;-122.498;2022-10-18T02:53:47;101444.15;;;20.04;49.82
50632;BME280;49583;45.590;-122.498;2022-10-18T02:55:54;101451.42;;;19.96;49.89
50632;BME280;49583;45.590;-122.498;2022-10-18T02:58:00;101447.23;;;19.89;50.04
50632;BME280;49583;45.590;-122.498;2022-10-18T03:00:08;101448.16;;;19.82;50.21
50632;BME280;49583;45.590;-122.498;2022-10-18T03:02:14;101446.36;;;19.74;50.29
50632;BME280;49583;45.590;-122.498;2022-10-18T03:04:21;101449.96;;;19.66;50.36
50632;BME280;49583;45.590;-122.498;2022-10-18T03:06:27;101451.90;;;19.57;50.44
50632;BME280;49583;45.590;-122.498;2022-10-18T03:08:35;101457.08;;;19.50;50.59
50632;BME280;49583;45.590;-122.498;2022-10-18T03:10:43;101458.49;;;19.43;50.76
50632;BME280;49583;45.590;-122.498;2022-10-18T03:12:50;101457.16;;;19.36;50.89
50632;BME280;49583;45.590;-122.498;2022-10-18T03:14:56;101455.83;;;19.29;50.98
50632;BME280;49583;45.590;-122.498;2022-10-18T03:17:02;101459.56;;;19.23;51.14
50632;BME280;49583;45.590;-122.498;2022-10-18T03:19:08;101462.29;;;19.19;51.37
50632;BME280;49583;45.590;-122.498;2022-10-18T03:21:15;101467.74;;;19.14;51.40
50632;BME280;49583;45.590;-122.498;2022-10-18T03:23:21;101466.73;;;19.10;51.60
50632;BME280;49583;45.590;-122.498;2022-10-18T03:25:27;101465.87;;;19.04;51.71
50632;BME280;49583;45.590;-122.498;2022-10-18T03:27:33;101467.45;;;19.00;51.83
50632;BME280;49583;45.590;-122.498;2022-10-18T03:29:40;101466.42;;;18.96;51.89
50632;BME280;49583;45.590;-122.498;2022-10-18T03:31:46;101467.61;;;18.92;52.02
50632;BME280;49583;45.590;-122.498;2022-10-18T03:33:53;101472.61;;;18.88;52.05
50632;BME280;49583;45.590;-122.498;2022-10-18T03:35:59;101469.20;;;18.82;52.24
50632;BME280;49583;45.590;-122.498;2022-10-18T03:38:05;101471.73;;;18.76;52.26
50632;BME280;49583;45.590;-122.498;2022-10-18T03:40:11;101474.04;;;18.71;52.39
50632;BME280;49583;45.590;-122.498;2022-10-18T03:42:17;101477.98;;;18.66;52.43
50632;BME280;49583;45.590;-122.498;2022-10-18T03:44:24;101477.11;;;18.62;52.53
50632;BME280;49583;45.590;-122.498;2022-10-18T03:46:30;101480.04;;;18.57;52.71
50632;BME280;49583;45.590;-122.498;2022-10-18T03:48:36;101481.11;;;18.51;52.77
50632;BME280;49583;45.590;-122.498;2022-10-18T03:50:43;101480.77;;;18.45;52.87
50632;BME280;49583;45.590;-122.498;2022-10-18T03:52:49;101478.71;;;18.39;52.86
50632;BME280;49583;45.590;-122.498;2022-10-18T03:54:55;101480.45;;;18.33;53.04
50632;BME280;49583;45.590;-122.498;2022-10-18T03:57:01;101487.30;;;18.29;53.17
50632;BME280;49583;45.590;-122.498;2022-10-18T03:59:07;101491.03;;;18.25;53.22
50632;BME280;49583;45.590;-122.498;2022-10-18T04:01:13;101493.06;;;18.20;53.34
50632;BME280;49583;45.590;-122.498;2022-10-18T04:03:22;101495.52;;;18.15;53.42
50632;BME280;49583;45.590;-122.498;2022-10-18T04:05:28;101495.75;;;18.11;53.49
50632;BME280;49583;45.590;-122.498;2022-10-18T04:07:36;101496.44;;;18.07;53.68
50632;BME280;49583;45.590;-122.498;2022-10-18T04:09:42;101498.40;;;18.03;53.80
50632;BME280;49583;45.590;-122.498;2022-10-18T04:11:49;101500.44;;;17.98;53.87
50632;BME280;49583;45.590;-122.498;2022-10-18T04:13:56;101502.24;;;17.93;53.88
50632;BME280;49583;45.590;-122.498;2022-10-18T04:16:02;101501.90;;;17.87;54.14
50632;BME280;49583;45.590;-122.498;2022-10-18T04:18:08;101504.88;;;17.82;54.13
50632;BME280;49583;45.590;-122.498;2022-10-18T04:20:15;101501.05;;;17.77;54.35
50632;BME280;49583;45.590;-122.498;2022-10-18T04:22:21;101504.13;;;17.72;54.48
50632;BME280;49583;45.590;-122.498;2022-10-18T04:24:27;101500.61;;;17.66;54.60
50632;BME280;49583;45.590;-122.498;2022-10-18T04:26:33;101500.11;;;17.62;54.71
50632;BME280;49583;45.590;-122.498;2022-10-18T04:28:40;101498.09;;;17.59;54.73
50632;BME280;49583;45.590;-122.498;2022-10-18T04:30:51;101496.09;;;17.55;55.01
50632;BME280;49583;45.590;-122.498;2022-10-18T04:32:58;101500.48;;;17.51;55.09
50632;BME280;49583;45.590;-122.498;2022-10-18T04:35:06;101502.86;;;17.48;55.38
50632;BME280;49583;45.590;-122.498;2022-10-18T04:37:12;101508.45;;;17.46;55.58
50632;BME280;49583;45.590;-122.498;2022-10-18T04:39:18;101514.44;;;17.42;55.65
50632;BME280;49583;45.590;-122.498;2022-10-18T04:41:24;101514.90;;;17.40;55.85
50632;BME280;49583;45.590;-122.498;2022-10-18T04:43:31;101516.45;;;17.36;55.90
50632;BME280;49583;45.590;-122.498;2022-10-18T04:45:37;101517.85;;;17.32;56.00
50632;BME280;49583;45.590;-122.498;2022-10-18T04:47:43;101519.16;;;17.28;56.09
50632;BME280;49583;45.590;-122.498;2022-10-18T04:49:49;101517.40;;;17.22;56.20
50632;BME280;49583;45.590;-122.498;2022-10-18T04:51:56;101520.91;;;17.19;56.28
50632;BME280;49583;45.590;-122.498;2022-10-18T04:54:02;101524.77;;;17.15;56.32
50632;BME280;49583;45.590;-122.498;2022-10-18T04:56:08;101534.45;;;17.10;56.27
50632;BME280;49583;45.590;-122.498;2022-10-18T04:58:16;101543.34;;;17.06;56.38
50632;BME280;49583;45.590;-122.498;2022-10-18T05:00:22;101546.71;;;17.02;56.56
50632;BME280;49583;45.590;-122.498;2022-10-18T05:02:29;101546.04;;;16.98;56.59
50632;BME280;49583;45.590;-122.498;2022-10-18T05:04:35;101552.09;;;16.94;56.60
50632;BME280;49583;45.590;-122.498;2022-10-18T05:06:42;101548.88;;;16.88;56.59
50632;BME280;49583;45.590;-122.498;2022-10-18T05:08:48;101545.97;;;16.82;56.58
50632;BME280;49583;45.590;-122.498;2022-10-18T05:10:54;101549.72;;;16.77;56.69
50632;BME280;49583;45.590;-122.498;2022-10-18T05:13:02;101547.61;;;16.73;56.83
50632;BME280;49583;45.590;-122.498;2022-10-18T05:15:09;101549.72;;;16.69;56.97
50632;BME280;49583;45.590;-122.498;2022-10-18T05:17:15;101551.87;;;16.65;56.96
50632;BME280;49583;45.590;-122.498;2022-10-18T05:19:21;101553.18;;;16.61;57.07
50632;BME280;49583;45.590;-122.498;2022-10-18T05:21:27;101555.80;;;16.57;57.24
50632;BME280;49583;45.590;-122.498;2022-10-18T05:23:33;101558.32;;;16.56;57.45
50632;BME280;49583;45.590;-122.498;2022-10-18T05:25:40;101556.38;;;16.53;57.63
50632;BME280;49583;45.590;-122.498;2022-10-18T05:27:47;101562.76;;;16.51;57.87
50632;BME280;49583;45.590;-122.498;2022-10-18T05:29:54;101564.55;;;16.48;58.01
50632;BME280;49583;45.590;-122.498;2022-10-18T05:32:04;101562.23;;;16.45;58.13
50632;BME280;49583;45.590;-122.498;2022-10-18T05:34:11;101564.08;;;16.43;58.19
50632;BME280;49583;45.590;-122.498;2022-10-18T05:36:18;101567.23;;;16.40;58.29
50632;BME280;49583;45.590;-122.498;2022-10-18T05:38:25;101565.04;;;16.36;58.58
50632;BME280;49583;45.590;-122.498;2022-10-18T05:40:37;101563.74;;;16.32;58.86
50632;BME280;49583;45.590;-122.498;2022-10-18T05:42:44;101568.69;;;16.30;58.98
50632;BME280;49583;45.590;-122.498;2022-10-18T05:44:50;101568.09;;;16.28;59.16
50632;BME280;49583;45.590;-122.498;2022-10-18T05:46:57;101572.10;;;16.25;59.36
50632;BME280;49583;45.590;-122.498;2022-10-18T05:49:03;101577.20;;;16.23;59.57
50632;BME280;49583;45.590;-122.498;2022-10-18T05:51:10;101581.42;;;16.21;59.84
50632;BME280;49583;45.590;-122.498;2022-10-18T05:53:16;101585.04;;;16.18;60.19
50632;BME280;49583;45.590;-122.498;2022-10-18T05:55:40;101586.39;;;16.18;60.28
50632;BME280;49583;45.590;-122.498;2022-10-18T05:57:49;101581.79;;;16.17;60.24
50632;BME280;49583;45.590;-122.498;2022-10-18T05:59:56;101582.16;;;16.15;60.28
50632;BME280;49583;45.590;-122.498;2022-10-18T06:02:03;101580.40;;;16.14;60.46
50632;BME280;49583;45.590;-122.498;2022-10-18T06:04:09;101579.73;;;16.11;60.58
50632;BME280;49583;45.590;-122.498;2022-10-18T06:06:16;101580.49;;;16.08;60.72
50632;BME280;49583;45.590;-122.498;2022-10-18T06:08:22;101583.13;;;16.05;60.78
50632;BME280;49583;45.590;-122.498;2022-10-18T06:10:29;101587.05;;;16.04;60.93
50632;BME280;49583;45.590;-122.498;2022-10-18T06:12:35;101590.44;;;16.04;61.03
50632;BME280;49583;45.590;-122.498;2022-10-18T06:14:42;101591.70;;;16.03;61.18
50632;BME280;49583;45.590;-122.498;2022-10-18T06:16:48;101597.77;;;16.01;61.33
50632;BME280;49583;45.590;-122.498;2022-10-18T06:18:56;101596.48;;;16.00;61.39
50632;BME280;49583;45.590;-122.498;2022-10-18T06:21:05;101595.63;;;15.96;61.83
50632;BME280;49583;45.590;-122.498;2022-10-18T06:23:11;101592.98;;;15.92;61.90
50632;BME280;49583;45.590;-122.498;2022-10-18T06:25:17;101594.42;;;15.89;61.97
50632;BME280;49583;45.590;-122.498;2022-10-18T06:27:23;101591.16;;;15.87;62.06
50632;BME280;49583;45.590;-122.498;2022-10-18T06:29:29;101588.78;;;15.86;62.18
50632;BME280;49583;45.590;-122.498;2022-10-18T06:31:35;101584.56;;;15.84;62.18
50632;BME280;49583;45.590;-122.498;2022-10-18T06:33:42;101584.44;;;15.81;62.18
50632;BME280;49583;45.590;-122.498;2022-10-18T06:35:55;101586.52;;;15.77;62.13
50632;BME280;49583;45.590;-122.498;2022-10-18T06:38:01;101589.23;;;15.74;62.29
50632;BME280;49583;45.590;-122.498;2022-10-18T06:40:08;101592.58;;;15.70;62.37
50632;BME280;49583;45.590;-122.498;2022-10-18T06:42:15;101589.45;;;15.67;62.55
50632;BME280;49583;45.590;-122.498;2022-10-18T06:44:25;101591.38;;;15.64;62.53
50632;BME280;49583;45.590;-122.498;2022-10-18T06:46:32;101592.99;;;15.61;62.71
50632;BME280;49583;45.590;-122.498;2022-10-18T06:48:39;101592.14;;;15.57;62.73
50632;BME280;49583;45.590;-122.498;2022-10-18T06:50:59;101592.82;;;15.54;62.79
50632;BME280;49583;45.590;-122.498;2022-10-18T06:53:06;101589.79;;;15.51;63.06
50632;BME280;49583;45.590;-122.498;2022-10-18T06:55:13;101589.38;;;15.49;63.23
50632;BME280;49583;45.590;-122.498;2022-10-18T06:57:20;101591.10;;;15.48;63.37
50632;BME280;49583;45.590;-122.498;2022-10-18T06:59:29;101590.14;;;15.46;63.40
50632;BME280;49583;45.590;-122.498;2022-10-18T07:01:38;101587.42;;;15.45;63.37
50632;BME280;49583;45.590;-122.498;2022-10-18T07:03:46;101580.98;;;15.43;63.42
50632;BME280;49583;45.590;-122.498;2022-10-18T07:05:52;101580.48;;;15.40;63.32
50632;BME280;49583;45.590;-122.498;2022-10-18T07:07:58;101576.75;;;15.38;63.18
50632;BME280;49583;45.590;-122.498;2022-10-18T07:10:05;101574.15;;;15.34;63.13
50632;BME280;49583;45.590;-122.498;2022-10-18T07:12:17;101572.45;;;15.30;63.14
50632;BME280;49583;45.590;-122.498;2022-10-18T07:14:23;101574.77;;;15.28;63.16
50632;BME280;49583;45.590;-122.498;2022-10-18T07:16:33;101574.23;;;15.25;63.20
50632;BME280;49583;45.590;-122.498;2022-10-18T07:18:41;101574.75;;;15.22;63.24
50632;BME280;49583;45.590;-122.498;2022-10-18T07:20:48;101574.05;;;15.19;63.26
50632;BME280;49583;45.590;-122.498;2022-10-18T07:22:58;101571.61;;;15.17;63.35
50632;BME280;49583;45.590;-122.498;2022-10-18T07:25:05;101574.63;;;15.15;63.42
50632;BME280;49583;45.590;-122.498;2022-10-18T07:27:12;101575.98;;;15.12;63.47
50632;BME280;49583;45.590;-122.498;2022-10-18T07:29:18;101574.46;;;15.11;63.58
50632;BME280;49583;45.590;-122.498;2022-10-18T07:31:25;101576.41;;;15.09;63.53
50632;BME280;49583;45.590;-122.498;2022-10-18T07:33:33;101576.42;;;15.04;63.58
50632;BME280;49583;45.590;-122.498;2022-10-18T07:35:40;101579.14;;;15.01;63.73
50632;BME280;49583;45.590;-122.498;2022-10-18T07:37:46;101579.86;;;14.98;63.89
50632;BME280;49583;45.590;-122.498;2022-10-18T07:39:53;101575.39;;;14.95;63.82
50632;BME280;49583;45.590;-122.498;2022-10-18T07:41:59;101578.42;;;14.93;63.95
50632;BME280;49583;45.590;-122.498;2022-10-18T07:44:06;101581.15;;;14.91;63.99
50632;BME280;49583;45.590;-122.498;2022-10-18T07:46:13;101581.75;;;14.90;63.96
50632;BME280;49583;45.590;-122.498;2022-10-18T07:48:20;101579.25;;;14.86;63.95
50632;BME280;49583;45.590;-122.498;2022-10-18T07:50:27;101583.36;;;14.82;63.71
50632;BME280;49583;45.590;-122.498;2022-10-18T07:52:33;101577.64;;;14.80;64.08
50632;BME280;49583;45.590;-122.498;2022-10-18T07:54:39;101581.88;;;14.79;64.27
50632;BME280;49583;45.590;-122.498;2022-10-18T07:56:45;101579.17;;;14.77;64.32
50632;BME280;49583;45.590;-122.498;2022-10-18T07:58:54;101585.35;;;14.75;64.23
50632;BME280;49583;45.590;-122.498;2022-10-18T08:01:05;101581.69;;;14.74;64.29
50632;BME280;49583;45.590;-122.498;2022-10-18T08:03:12;101586.13;;;14.71;64.67
50632;BME280;49583;45.590;-122.498;2022-10-18T08:05:18;101585.72;;;14.70;64.60
50632;BME280;49583;45.590;-122.498;2022-10-18T08:07:24;101585.98;;;14.68;64.67
50632;BME280;49583;45.590;-122.498;2022-10-18T08:09:31;101585.70;;;14.65;64.34
50632;BME280;49583;45.590;-122.498;2022-10-18T08:11:38;101586.35;;;14.61;64.41
50632;BME280;49583;45.590;-122.498;2022-10-18T08:13:44;101586.50;;;14.58;64.22
50632;BME280;49583;45.590;-122.498;2022-10-18T08:15:55;101589.77;;;14.54;64.34
50632;BME280;49583;45.590;-122.498;2022-10-18T08:18:04;101587.48;;;14.51;64.48
50632;BME280;49583;45.590;-122.498;2022-10-18T08:20:10;101590.41;;;14.48;64.66
50632;BME280;49583;45.590;-122.498;2022-10-18T08:22:34;101590.62;;;14.46;64.85
50632;BME280;49583;45.590;-122.498;2022-10-18T08:24:40;101589.09;;;14.45;65.01
50632;BME280;49583;45.590;-122.498;2022-10-18T08:26:48;101584.90;;;14.44;64.90
50632;BME280;49583;45.590;-122.498;2022-10-18T08:28:54;101584.39;;;14.42;64.71
50632;BME280;49583;45.590;-122.498;2022-10-18T08:31:21;101592.11;;;14.39;64.80
50632;BME280;49583;45.590;-122.498;2022-10-18T08:33:27;101589.16;;;14.34;64.61
50632;BME280;49583;45.590;-122.498;2022-10-18T08:35:34;101586.08;;;14.30;64.46
50632;BME280;49583;45.590;-122.498;2022-10-18T08:37:40;101587.59;;;14.23;64.40
50632;BME280;49583;45.590;-122.498;2022-10-18T08:39:47;101591.21;;;14.19;64.40
50632;BME280;49583;45.590;-122.498;2022-10-18T08:44:29;101593.73;;;14.09;64.46
50632;BME280;49583;45.590;-122.498;2022-10-18T08:46:41;101595.34;;;14.03;64.13
50632;BME280;49583;45.590;-122.498;2022-10-18T08:48:51;101593.94;;;13.97;64.12
50632;BME280;49583;45.590;-122.498;2022-10-18T08:51:00;101593.89;;;13.91;64.32
50632;BME280;49583;45.590;-122.498;2022-10-18T08:55:44;101597.81;;;13.80;64.35
50632;BME280;49583;45.590;-122.498;2022-10-18T08:57:51;101601.89;;;13.75;64.42
50632;BME280;49583;45.590;-122.498;2022-10-18T08:59:58;101605.30;;;13.70;64.25
50632;BME280;49583;45.590;-122.498;2022-10-18T09:16:43;101632.17;;;13.37;64.78
50632;BME280;49583;45.590;-122.498;2022-10-18T09:21:54;101627.89;;;13.33;65.10
50632;BME280;49583;45.590;-122.498;2022-10-18T09:24:17;101624.29;;;13.30;64.93
50632;BME280;49583;45.590;-122.498;2022-10-18T09:26:25;101619.23;;;13.26;64.88
50632;BME280;49583;45.590;-122.498;2022-10-18T09:29:04;101620.45;;;13.21;64.85
50632;BME280;49583;45.590;-122.498;2022-10-18T09:31:20;101620.69;;;13.15;65.07
50632;BME280;49583;45.590;-122.498;2022-10-18T09:36:00;101622.86;;;13.06;64.98
50632;BME280;49583;45.590;-122.498;2022-10-18T09:38:09;101623.38;;;13.02;65.09
50632;BME280;49583;45.590;-122.498;2022-10-18T09:40:41;101623.59;;;12.98;65.17
50632;BME280;49583;45.590;-122.498;2022-10-18T09:42:58;101625.45;;;12.92;65.32
50632;BME280;49583;45.590;-122.498;2022-10-18T09:48:09;101633.92;;;12.85;65.70
50632;BME280;49583;45.590;-122.498;2022-10-18T09:50:26;101631.69;;;12.84;65.84
50632;BME280;49583;45.590;-122.498;2022-10-18T09:52:46;101627.41;;;12.80;65.64
50632;BME280;49583;45.590;-122.498;2022-10-18T09:54:59;101629.77;;;12.77;65.81
50632;BME280;49583;45.590;-122.498;2022-10-18T09:57:25;101629.88;;;12.75;65.97
50632;BME280;49583;45.590;-122.498;2022-10-18T09:59:45;101634.13;;;12.73;66.07
50632;BME280;49583;45.590;-122.498;2022-10-18T10:01:52;101633.10;;;12.69;66.06
50632;BME280;49583;45.590;-122.498;2022-10-18T10:03:58;101633.43;;;12.67;66.15
50632;BME280;49583;45.590;-122.498;2022-10-18T10:06:14;101626.59;;;12.64;66.11
50632;BME280;49583;45.590;-122.498;2022-10-18T10:08:32;101620.32;;;12.62;66.26
50632;BME280;49583;45.590;-122.498;2022-10-18T10:10:45;101617.16;;;12.58;66.06
50632;BME280;49583;45.590;-122.498;2022-10-18T10:15:22;101619.20;;;12.53;66.27
50632;BME280;49583;45.590;-122.498;2022-10-18T10:17:36;101620.07;;;12.50;66.37
50632;BME280;49583;45.590;-122.498;2022-10-18T10:20:03;101623.11;;;12.47;66.36
50632;BME280;49583;45.590;-122.498;2022-10-18T10:22:12;101623.06;;;12.43;66.47
50632;BME280;49583;45.590;-122.498;2022-10-18T10:24:42;101618.38;;;12.38;66.64
50632;BME280;49583;45.590;-122.498;2022-10-18T10:26:52;101617.02;;;12.37;66.88
50632;BME280;49583;45.590;-122.498;2022-10-18T10:32:01;101614.02;;;12.34;67.07
50632;BME280;49583;45.590;-122.498;2022-10-18T10:36:20;101615.96;;;12.33;67.27
50632;BME280;49583;45.590;-122.498;2022-10-18T10:38:28;101615.58;;;12.33;67.41
50632;BME280;49583;45.590;-122.498;2022-10-18T10:40:48;101614.80;;;12.33;67.38
50632;BME280;49583;45.590;-122.498;2022-10-18T10:43:04;101617.42;;;12.32;67.43
50632;BME280;49583;45.590;-122.498;2022-10-18T10:45:50;101620.39;;;12.31;67.50
50632;BME280;49583;45.590;-122.498;2022-10-18T10:48:10;101621.83;;;12.32;67.56
50632;BME280;49583;45.590;-122.498;2022-10-18T10:50:27;101622.61;;;12.32;67.65
50632;BME280;49583;45.590;-122.498;2022-10-18T10:52:33;101621.00;;;12.33;67.75
50632;BME280;49583;45.590;-122.498;2022-10-18T10:54:43;101613.58;;;12.35;67.72
50632;BME280;49583;45.590;-122.498;2022-10-18T10:56:59;101607.52;;;12.37;67.75
50632;BME280;49583;45.590;-122.498;2022-10-18T11:01:29;101610.40;;;12.39;67.82
50632;BME280;49583;45.590;-122.498;2022-10-18T11:03:35;101613.15;;;12.39;67.90
50632;BME280;49583;45.590;-122.498;2022-10-18T11:05:44;101620.10;;;12.41;67.95
50632;BME280;49583;45.590;-122.498;2022-10-18T11:08:01;101622.71;;;12.41;67.91
50632;BME280;49583;45.590;-122.498;2022-10-18T11:14:35;101622.54;;;12.43;68.23
50632;BME280;49583;45.590;-122.498;2022-10-18T11:21:44;101634.29;;;12.48;68.33
50632;BME280;49583;45.590;-122.498;2022-10-18T11:23:51;101633.56;;;12.50;68.19
50632;BME280;49583;45.590;-122.498;2022-10-18T11:31:11;101638.64;;;12.55;68.55
50632;BME280;49583;45.590;-122.498;2022-10-18T11:33:41;101643.70;;;12.56;68.36
50632;BME280;49583;45.590;-122.498;2022-10-18T11:41:59;101645.52;;;12.57;68.55
50632;BME280;49583;45.590;-122.498;2022-10-18T11:46:58;101648.44;;;12.55;68.58
50632;BME280;49583;45.590;-122.498;2022-10-18T11:49:45;101652.13;;;12.54;68.64
50632;BME280;49583;45.590;-122.498;2022-10-18T11:52:24;101650.16;;;12.54;68.60
50632;BME280;49583;45.590;-122.498;2022-10-18T12:00:01;101655.02;;;12.51;68.70
50632;BME280;49583;45.590;-122.498;2022-10-18T12:04:30;101652.63;;;12.48;68.83
50632;BME280;49583;45.590;-122.498;2022-10-18T12:06:41;101653.36;;;12.45;68.85
50632;BME280;49583;45.590;-122.498;2022-10-18T12:09:01;101653.48;;;12.44;68.80
50632;BME280;49583;45.590;-122.498;2022-10-18T12:11:20;101655.64;;;12.42;68.77
50632;BME280;49583;45.590;-122.498;2022-10-18T12:15:40;101658.05;;;12.40;68.81
50632;BME280;49583;45.590;-122.498;2022-10-18T12:17:49;101662.08;;;12.38;68.70
50632;BME280;49583;45.590;-122.498;2022-10-18T12:20:04;101659.81;;;12.35;68.78
50632;BME280;49583;45.590;-122.498;2022-10-18T12:22:31;101662.52;;;12.34;68.80
50632;BME280;49583;45.590;-122.498;2022-10-18T12:24:41;101663.30;;;12.33;68.92
50632;BME280;49583;45.590;-122.498;2022-10-18T12:26:49;101663.50;;;12.33;69.04